Time;durP1;ratioP1;P1;durP2;ratioP2;P2;SDS_P1;SDS_P2;PMS_P1;PMS_P2;Temp;Humidity;BMP_temperature;BMP_pressure;BME280_temperature;BME280_humidity;BME280_pressure;Samples;Min_cycle;Max_cycle;Signal;HPM_P1;HPM_P2
2023/09/18 00:01:49;;;;;;;0.80;0.80;;;21.80;67.80;;;;;;6291879;28;20458;-65
2023/09/18 00:04:50;;;;;;;1.35;0.90;;;21.80;67.80;;;;;;6291484;28;20030;-66
2023/09/18 00:07:50;;;;;;;1.10;1.00;;;21.80;67.80;;;;;;6291600;28;20031;-65
2023/09/18 00:10:54;;;;;;;2.17;1.45;;;21.80;67.80;;;;;;6291314;28;20092;-65
2023/09/18 00:13:55;;;;;;;1.17;0.90;;;21.80;67.80;;;;;;6292296;28;20039;-65
2023/09/18 00:16:57;;;;;;;1.13;1.02;;;21.80;67.80;;;;;;6289921;28;20028;-65
2023/09/18 00:19:57;;;;;;;2.00;1.00;;;21.80;67.80;;;;;;6291674;28;20044;-65
2023/09/18 00:22:59;;;;;;;1.10;0.90;;;21.80;67.80;;;;;;6292079;28;20048;-66
2023/09/18 00:26:00;;;;;;;1.13;0.93;;;21.80;67.80;;;;;;6292195;28;20050;-65
2023/09/18 00:29:00;;;;;;;1.05;0.90;;;21.80;67.80;;;;;;6290484;28;20078;-66
2023/09/18 00:32:01;;;;;;;1.33;1.10;;;21.80;67.80;;;;;;6291840;28;20067;-65
2023/09/18 00:35:02;;;;;;;1.10;1.00;;;21.80;67.80;;;;;;6292038;28;20107;-65
2023/09/18 00:38:03;;;;;;;1.38;1.02;;;21.80;67.80;;;;;;6291620;28;20272;-65
2023/09/18 00:41:04;;;;;;;1.08;0.98;;;21.80;67.80;;;;;;6290488;28;20025;-65
2023/09/18 00:44:05;;;;;;;0.85;0.82;;;21.80;67.80;;;;;;6291540;28;20537;-65
2023/09/18 00:47:07;;;;;;;0.98;0.90;;;21.80;67.80;;;;;;6291577;28;20479;-65
2023/09/18 00:50:11;;;;;;;1.02;0.90;;;21.80;67.80;;;;;;6291883;28;20078;-65
2023/09/18 00:53:23;;;;;;;0.90;0.88;;;21.80;67.80;;;;;;6283225;28;20390;-65
2023/09/18 00:56:24;;;;;;;1.23;0.98;;;21.80;67.80;;;;;;6284390;28;20517;-66
2023/09/18 00:59:24;;;;;;;1.60;1.30;;;21.80;67.80;;;;;;6291465;28;20024;-65
2023/09/18 01:02:26;;;;;;;0.95;0.90;;;21.80;67.80;;;;;;6290999;28;20569;-65
2023/09/18 01:05:27;;;;;;;1.05;0.88;;;21.80;67.80;;;;;;6291979;28;20587;-65
2023/09/18 01:08:27;;;;;;;0.90;0.90;;;21.80;67.80;;;;;;6291292;28;20033;-66
2023/09/18 01:11:39;;;;;;;1.00;0.80;;;21.80;67.80;;;;;;6291903;28;20032;-65
2023/09/18 01:15:02;;;;;;;0.65;0.65;;;21.80;67.80;;;;;;6293059;28;20559;-66
2023/09/18 01:18:04;;;;;;;0.80;0.70;;;21.80;67.80;;;;;;6293032;28;20051;-65
2023/09/18 01:21:05;;;;;;;1.23;1.00;;;21.80;67.80;;;;;;6293199;28;20021;-66
2023/09/18 01:24:06;;;;;;;0.85;0.80;;;21.80;67.80;;;;;;6296167;28;20021;-65
2023/09/18 01:27:10;;;;;;;1.02;0.93;;;21.80;67.80;;;;;;6296103;28;20100;-65
2023/09/18 01:30:12;;;;;;;1.33;1.00;;;21.80;67.80;;;;;;6295754;28;20082;-65
2023/09/18 01:33:14;;;;;;;1.00;0.90;;;21.80;67.80;;;;;;6295430;28;20021;-65
2023/09/18 01:36:17;;;;;;;0.93;0.80;;;21.80;67.80;;;;;;6295688;28;20506;-65
2023/09/18 01:39:19;;;;;;;0.98;0.80;;;21.80;67.80;;;;;;6287233;28;20055;-65
2023/09/18 01:42:20;;;;;;;0.80;0.80;;;21.80;67.80;;;;;;6295385;28;20028;-66
2023/09/18 01:45:20;;;;;;;0.70;0.70;;;21.80;67.80;;;;;;6295424;28;20298;-65
2023/09/18 01:48:21;;;;;;;0.75;0.75;;;21.80;67.80;;;;;;6294987;28;20078;-65
2023/09/18 01:51:22;;;;;;;0.98;0.88;;;21.80;67.80;;;;;;6287055;28;20057;-65
2023/09/18 01:54:23;;;;;;;1.15;1.00;;;21.80;67.80;;;;;;6294536;28;20017;-65
2023/09/18 01:57:24;;;;;;;1.20;0.77;;;21.80;67.80;;;;;;6295222;28;20094;-65
2023/09/18 02:00:25;;;;;;;0.80;0.80;;;21.80;67.80;;;;;;6295142;28;20059;-65
2023/09/18 02:03:26;;;;;;;1.05;0.95;;;21.80;67.80;;;;;;6294969;28;20094;-65
2023/09/18 02:06:26;;;;;;;0.93;0.90;;;21.80;67.80;;;;;;6293332;28;20062;-65
2023/09/18 02:09:27;;;;;;;0.73;0.65;;;21.80;67.80;;;;;;6294806;28;20445;-65
2023/09/18 02:12:28;;;;;;;1.00;0.90;;;21.80;67.80;;;;;;6295624;28;20020;-65
2023/09/18 02:15:30;;;;;;;0.98;0.88;;;21.80;67.80;;;;;;6294273;28;20091;-65
2023/09/18 02:18:31;;;;;;;0.93;0.88;;;21.80;67.80;;;;;;6294636;28;20032;-65
2023/09/18 02:21:32;;;;;;;0.77;0.70;;;21.80;67.80;;;;;;6294465;28;20028;-66
2023/09/18 02:24:34;;;;;;;0.77;0.68;;;21.80;67.80;;;;;;6294541;28;20031;-65
2023/09/18 02:27:34;;;;;;;1.35;1.00;;;21.80;68.60;;;;;;6293772;28;20077;-66
2023/09/18 02:30:35;;;;;;;1.00;0.90;;;21.80;67.80;;;;;;6295018;28;20472;-65
2023/09/18 02:33:37;;;;;;;0.82;0.80;;;21.80;67.80;;;;;;6294069;28;20017;-65
2023/09/18 02:36:38;;;;;;;1.20;0.90;;;21.80;67.80;;;;;;6293288;28;20020;-65
2023/09/18 02:39:38;;;;;;;0.93;0.80;;;21.80;67.80;;;;;;6293004;28;20032;-66
2023/09/18 02:42:39;;;;;;;0.82;0.82;;;21.80;67.80;;;;;;6293636;28;20025;-65
2023/09/18 02:45:40;;;;;;;0.98;0.70;;;21.80;67.80;;;;;;6293635;28;20024;-65
2023/09/18 02:48:41;;;;;;;0.70;0.70;;;21.80;67.80;;;;;;6293778;28;20081;-65
2023/09/18 02:51:41;;;;;;;0.80;0.80;;;21.80;67.80;;;;;;6288668;28;20024;-65
2023/09/18 02:54:42;;;;;;;0.90;0.80;;;21.80;67.80;;;;;;6293677;28;20025;-65
2023/09/18 02:57:42;;;;;;;0.70;0.70;;;21.80;67.80;;;;;;6293350;28;20028;-65
2023/09/18 03:00:44;;;;;;;0.90;0.85;;;21.80;67.80;;;;;;6293778;28;20021;-66
2023/09/18 03:03:45;;;;;;;1.00;0.85;;;21.80;67.80;;;;;;6293298;28;20020;-65
2023/09/18 03:06:45;;;;;;;0.80;0.80;;;21.80;67.80;;;;;;6293447;28;20091;-65
2023/09/18 03:09:46;;;;;;;0.93;0.82;;;21.80;67.80;;;;;;6293178;28;20027;-65
2023/09/18 03:12:50;;;;;;;1.10;0.90;;;21.80;67.90;;;;;;6293283;28;20031;-65
2023/09/18 03:15:50;;;;;;;0.90;0.80;;;21.80;67.90;;;;;;6293367;28;20485;-65
2023/09/18 03:18:51;;;;;;;0.70;0.70;;;21.80;67.80;;;;;;6293095;28;20024;-65
2023/09/18 03:21:52;;;;;;;0.77;0.70;;;21.80;67.80;;;;;;6292653;28;20054;-65
2023/09/18 03:24:53;;;;;;;1.08;0.90;;;21.80;67.80;;;;;;6293357;28;20021;-65
2023/09/18 03:27:57;;;;;;;0.70;0.70;;;21.80;67.80;;;;;;6292467;28;20021;-65
2023/09/18 03:30:58;;;;;;;0.73;0.70;;;21.80;67.90;;;;;;6291554;28;20040;-65
2023/09/18 03:33:59;;;;;;;0.95;0.80;;;21.80;67.80;;;;;;6292809;28;20032;-65
2023/09/18 03:36:59;;;;;;;0.80;0.80;;;21.80;67.90;;;;;;6292240;28;20098;-66
2023/09/18 03:40:01;;;;;;;1.02;0.90;;;21.80;67.80;;;;;;6292687;28;20078;-65
2023/09/18 03:43:02;;;;;;;0.90;0.70;;;21.80;67.80;;;;;;6292610;28;20536;-65
2023/09/18 03:46:12;;;;;;;0.70;0.70;;;21.80;67.80;;;;;;6291762;28;20141;-65
2023/09/18 03:49:13;;;;;;;1.17;0.80;;;21.80;67.80;;;;;;6292330;28;20502;-65
2023/09/18 03:52:13;;;;;;;0.80;0.80;;;21.80;67.90;;;;;;6292063;28;20016;-65
2023/09/18 03:55:14;;;;;;;0.80;0.70;;;21.80;67.80;;;;;;6292492;28;20024;-65
2023/09/18 03:58:14;;;;;;;0.60;0.60;;;21.80;67.80;;;;;;6291675;28;20431;-65
2023/09/18 04:01:16;;;;;;;1.10;0.90;;;21.80;67.80;;;;;;6292027;28;20021;-65
2023/09/18 04:04:16;;;;;;;0.90;0.90;;;21.80;67.80;;;;;;6292129;28;20471;-65
2023/09/18 04:07:19;;;;;;;0.70;0.70;;;21.80;67.80;;;;;;6292286;28;20031;-65
2023/09/18 04:10:22;;;;;;;0.70;0.70;;;21.80;67.90;;;;;;6292772;28;20016;-65
2023/09/18 04:13:23;;;;;;;0.75;0.73;;;21.80;67.80;;;;;;6291809;28;20082;-65
2023/09/18 04:16:25;;;;;;;1.45;0.88;;;21.80;67.80;;;;;;6290517;28;20382;-66
2023/09/18 04:19:26;;;;;;;0.80;0.70;;;21.80;67.70;;;;;;6291532;28;20039;-65
2023/09/18 04:22:26;;;;;;;0.80;0.80;;;21.80;67.80;;;;;;6291876;28;20024;-65
2023/09/18 04:25:27;;;;;;;1.02;0.93;;;21.80;67.70;;;;;;6292781;28;20044;-65
2023/09/18 04:28:28;;;;;;;0.90;0.80;;;21.80;67.70;;;;;;6291911;28;20028;-65
2023/09/18 04:31:29;;;;;;;1.23;1.00;;;21.80;67.70;;;;;;6292888;28;20032;-65
2023/09/18 04:34:29;;;;;;;1.20;0.82;;;21.80;67.70;;;;;;6291991;28;20503;-65
2023/09/18 04:37:30;;;;;;;1.10;0.93;;;21.80;67.70;;;;;;6290546;28;20098;-66
2023/09/18 04:40:32;;;;;;;1.13;0.90;;;21.80;67.80;;;;;;6292071;28;20035;-65
2023/09/18 04:43:35;;;;;;;1.08;0.93;;;21.80;67.70;;;;;;6291629;28;20028;-65
2023/09/18 04:46:36;;;;;;;0.90;0.88;;;21.80;67.70;;;;;;6290979;28;20020;-65
2023/09/18 04:49:36;;;;;;;2.05;1.10;;;21.80;67.70;;;;;;6291640;28;20012;-65
2023/09/18 04:52:37;;;;;;;1.45;0.90;;;21.80;67.70;;;;;;6282848;28;20505;-65
2023/09/18 04:55:38;;;;;;;1.05;0.95;;;21.80;67.70;;;;;;6291520;28;20539;-65
2023/09/18 04:58:39;;;;;;;1.55;1.10;;;21.90;67.70;;;;;;6292887;28;20028;-65
2023/09/18 05:01:39;;;;;;;1.33;1.02;;;21.90;67.80;;;;;;6295505;28;20021;-67
2023/09/18 05:04:40;;;;;;;1.42;1.17;;;21.90;67.80;;;;;;6286097;28;20031;-67
2023/09/18 05:07:41;;;;;;;1.15;0.95;;;21.80;67.80;;;;;;6294122;28;20051;-67
2023/09/18 05:10:43;;;;;;;1.25;0.90;;;21.90;67.80;;;;;;6300937;28;20024;-67
2023/09/18 05:13:44;;;;;;;1.10;1.00;;;21.80;67.80;;;;;;6302966;28;20111;-67
2023/09/18 05:16:44;;;;;;;1.25;1.00;;;21.80;67.70;;;;;;6299883;28;20023;-67
2023/09/18 05:19:45;;;;;;;0.95;0.85;;;21.80;67.80;;;;;;6294999;28;20020;-67
2023/09/18 05:22:46;;;;;;;1.30;1.00;;;21.80;67.70;;;;;;6285378;28;20029;-67
2023/09/18 05:25:46;;;;;;;0.75;0.75;;;21.80;67.70;;;;;;6301301;28;20383;-67
2023/09/18 05:28:47;;;;;;;0.90;0.80;;;21.80;67.80;;;;;;6294763;28;20033;-67
2023/09/18 05:31:48;;;;;;;1.05;0.95;;;21.80;67.80;;;;;;6277159;28;20457;-67
2023/09/18 05:34:49;;;;;;;1.08;0.93;;;21.80;67.70;;;;;;6292036;28;20056;-65
2023/09/18 05:37:51;;;;;;;0.90;0.75;;;21.80;68.60;;;;;;6294829;28;20037;-64
2023/09/18 05:40:51;;;;;;;1.75;0.80;;;21.80;67.80;;;;;;6295792;28;20020;-64
2023/09/18 05:43:52;;;;;;;1.17;1.00;;;21.80;67.80;;;;;;6295784;28;20140;-65
2023/09/18 05:46:53;;;;;;;1.42;1.13;;;21.80;67.70;;;;;;6294945;28;20025;-65
2023/09/18 05:49:53;;;;;;;1.20;1.00;;;21.80;67.70;;;;;;6295372;28;20031;-65
2023/09/18 05:52:59;;;;;;;1.10;1.00;;;21.80;67.80;;;;;;6295258;28;20428;-65
2023/09/18 05:56:03;;;;;;;1.08;0.98;;;21.80;67.80;;;;;;6294970;28;20142;-63
2023/09/18 05:59:05;;;;;;;1.13;1.02;;;21.80;67.80;;;;;;6294011;28;20104;-64
2023/09/18 06:02:06;;;;;;;1.17;1.00;;;21.80;67.80;;;;;;6295291;28;20049;-63
2023/09/18 06:05:09;;;;;;;1.00;0.90;;;21.80;67.80;;;;;;6297626;28;20031;-64
2023/09/18 06:08:09;;;;;;;1.33;1.00;;;21.80;67.80;;;;;;6296927;28;20016;-64
2023/09/18 06:11:10;;;;;;;2.22;0.90;;;21.80;67.80;;;;;;6295648;28;20066;-64
2023/09/18 06:14:11;;;;;;;1.17;1.00;;;21.80;67.80;;;;;;6297192;28;20036;-63
2023/09/18 06:17:12;;;;;;;0.90;0.80;;;21.80;67.80;;;;;;6294945;28;20051;-64
2023/09/18 06:20:12;;;;;;;1.13;1.02;;;21.80;67.80;;;;;;6297298;28;20029;-63
2023/09/18 06:23:13;;;;;;;1.10;0.93;;;21.80;67.80;;;;;;6296770;28;20035;-64
2023/09/18 06:26:14;;;;;;;1.27;1.10;;;21.80;67.80;;;;;;6297102;28;20024;-63
2023/09/18 06:29:15;;;;;;;1.23;1.00;;;21.80;67.80;;;;;;6296125;28;20571;-64
2023/09/18 06:32:15;;;;;;;1.38;1.17;;;21.80;67.80;;;;;;6296823;28;20076;-64
2023/09/18 06:35:16;;;;;;;1.08;0.95;;;21.80;67.80;;;;;;6296418;28;20033;-64
2023/09/18 06:38:17;;;;;;;1.10;1.00;;;21.80;67.80;;;;;;6295759;28;20056;-64
2023/09/18 06:41:18;;;;;;;1.38;1.00;;;21.80;67.80;;;;;;6288313;28;20036;-64
2023/09/18 06:44:18;;;;;;;1.15;1.05;;;21.80;67.80;;;;;;6296134;28;20032;-64
2023/09/18 06:47:19;;;;;;;1.10;1.00;;;21.80;67.80;;;;;;6295781;28;20451;-64
2023/09/18 06:50:20;;;;;;;1.23;1.00;;;21.80;67.80;;;;;;6295920;28;20032;-64
2023/09/18 06:53:20;;;;;;;1.20;1.10;;;21.80;67.80;;;;;;6296627;28;20029;-65
2023/09/18 06:56:21;;;;;;;1.27;1.17;;;21.80;67.80;;;;;;6295914;28;20032;-64
2023/09/18 06:59:22;;;;;;;0.80;0.80;;;21.80;67.80;;;;;;6295972;28;20021;-64
2023/09/18 07:02:22;;;;;;;1.35;1.02;;;21.80;67.80;;;;;;6296192;28;20368;-63
2023/09/18 07:05:23;;;;;;;1.45;1.02;;;21.80;67.80;;;;;;6295496;28;20035;-64
2023/09/18 07:08:24;;;;;;;1.27;1.02;;;21.80;67.80;;;;;;6294516;28;20063;-63
2023/09/18 07:11:25;;;;;;;1.58;1.00;;;21.80;67.80;;;;;;6293681;28;20025;-64
2023/09/18 07:14:26;;;;;;;1.20;1.10;;;21.80;67.80;;;;;;6295448;28;20081;-63
2023/09/18 07:17:27;;;;;;;1.17;0.90;;;21.80;67.80;;;;;;6293637;28;20024;-63
2023/09/18 07:20:28;;;;;;;1.25;1.10;;;21.80;67.80;;;;;;6294749;28;20100;-63
2023/09/18 07:23:28;;;;;;;1.77;1.00;;;21.80;67.80;;;;;;6293416;28;20032;-63
2023/09/18 07:26:29;;;;;;;1.15;0.80;;;21.80;67.80;;;;;;6295072;28;20035;-64
2023/09/18 07:29:30;;;;;;;1.10;0.93;;;21.80;67.80;;;;;;6294698;28;20024;-64
2023/09/18 07:32:33;;;;;;;0.90;0.88;;;21.80;67.80;;;;;;6295527;28;20024;-64
2023/09/18 07:35:36;;;;;;;1.25;1.00;;;21.80;67.80;;;;;;6295994;28;20696;-64
2023/09/18 07:38:43;;;;;;;1.75;0.90;;;21.80;67.80;;;;;;6294377;28;20072;-65
2023/09/18 07:41:43;;;;;;;1.00;0.90;;;21.80;67.80;;;;;;6294998;28;20035;-64
2023/09/18 07:44:44;;;;;;;1.13;0.90;;;21.80;67.80;;;;;;6295135;28;20024;-64
2023/09/18 07:47:45;;;;;;;1.33;1.00;;;21.80;67.80;;;;;;6295472;28;20024;-64
2023/09/18 07:50:46;;;;;;;1.17;1.00;;;21.80;67.80;;;;;;6294402;28;20021;-63
2023/09/18 07:53:47;;;;;;;1.17;0.98;;;21.80;67.80;;;;;;6295793;28;20320;-63
2023/09/18 07:56:48;;;;;;;0.93;0.80;;;21.80;67.80;;;;;;6294293;28;20486;-64
2023/09/18 07:59:48;;;;;;;1.00;0.90;;;21.80;67.80;;;;;;6294836;28;20069;-64
2023/09/18 08:02:52;;;;;;;1.13;1.02;;;21.80;67.80;;;;;;6294268;28;20473;-63
2023/09/18 08:05:53;;;;;;;1.05;0.95;;;21.80;67.80;;;;;;6294543;28;20025;-64
2023/09/18 08:08:54;;;;;;;1.35;0.93;;;21.80;67.80;;;;;;6294441;28;20062;-64
2023/09/18 08:11:55;;;;;;;0.90;0.80;;;21.80;67.90;;;;;;6293918;28;20021;-63
2023/09/18 08:14:58;;;;;;;1.02;0.93;;;21.80;67.80;;;;;;6294877;28;20679;-62
2023/09/18 08:17:59;;;;;;;0.85;0.85;;;21.80;67.80;;;;;;6294490;28;20024;-63
2023/09/18 08:21:00;;;;;;;0.70;0.70;;;21.80;67.80;;;;;;6294267;28;20589;-63
2023/09/18 08:24:02;;;;;;;0.85;0.73;;;21.80;67.80;;;;;;6294335;28;20032;-63
2023/09/18 08:27:03;;;;;;;1.00;0.90;;;21.80;67.80;;;;;;6293811;28;20513;-63
2023/09/18 08:30:04;;;;;;;1.08;0.90;;;21.80;67.90;;;;;;6294623;28;20023;-63
2023/09/18 08:33:05;;;;;;;0.98;0.93;;;21.80;67.80;;;;;;6296072;28;20024;-63
2023/09/18 08:36:05;;;;;;;1.15;0.88;;;21.80;67.80;;;;;;6299413;28;20063;-63
2023/09/18 08:39:06;;;;;;;1.35;1.08;;;21.80;67.80;;;;;;6298605;28;20461;-63
2023/09/18 08:42:10;;;;;;;0.80;0.80;;;21.80;67.80;;;;;;6299449;28;20048;-63
2023/09/18 08:45:19;;;;;;;0.90;0.80;;;21.80;67.80;;;;;;6298353;28;20116;-63
2023/09/18 08:48:20;;;;;;;0.90;0.80;;;21.80;67.80;;;;;;6299083;28;20013;-62
2023/09/18 08:51:22;;;;;;;0.80;0.80;;;21.80;67.80;;;;;;6299288;28;20099;-63
2023/09/18 08:54:24;;;;;;;0.90;0.82;;;21.80;67.80;;;;;;6299072;28;20070;-63
2023/09/18 08:57:25;;;;;;;0.90;0.80;;;21.80;67.80;;;;;;6298852;28;20033;-63
2023/09/18 09:00:27;;;;;;;1.10;1.00;;;21.80;67.80;;;;;;6298684;28;20600;-63
2023/09/18 09:03:28;;;;;;;1.00;0.90;;;21.80;67.80;;;;;;6298727;28;20115;-63
2023/09/18 09:06:28;;;;;;;1.00;0.90;;;21.80;67.80;;;;;;6299033;28;20532;-62
2023/09/18 09:09:30;;;;;;;1.17;1.00;;;21.80;67.80;;;;;;6299322;28;20017;-63
2023/09/18 09:12:58;;;;;;;1.63;0.95;;;21.80;67.80;;;;;;6298722;28;20434;-63
2023/09/18 09:16:00;;;;;;;1.02;0.93;;;21.80;67.80;;;;;;6298447;28;20032;-63
2023/09/18 09:19:00;;;;;;;1.13;0.82;;;21.80;67.80;;;;;;6298218;28;20418;-63
2023/09/18 09:22:01;;;;;;;1.55;0.95;;;21.80;67.80;;;;;;6298481;28;20053;-62
2023/09/18 09:25:02;;;;;;;1.23;1.13;;;21.80;67.80;;;;;;6298464;28;20021;-63
2023/09/18 09:28:06;;;;;;;0.98;0.88;;;21.80;67.80;;;;;;6298042;28;20466;-63
2023/09/18 09:31:06;;;;;;;1.27;0.80;;;21.80;67.80;;;;;;6297715;28;20021;-63
2023/09/18 09:34:09;;;;;;;0.90;0.80;;;21.80;67.80;;;;;;6296738;28;20036;-63
2023/09/18 09:37:10;;;;;;;1.45;0.95;;;21.80;67.80;;;;;;6297718;28;20050;-63
2023/09/18 09:40:14;;;;;;;1.15;1.05;;;21.80;67.80;;;;;;6297695;28;20025;-63
2023/09/18 09:43:15;;;;;;;0.70;0.70;;;21.80;67.80;;;;;;6296351;28;20052;-63
2023/09/18 09:46:17;;;;;;;1.10;1.00;;;21.80;67.80;;;;;;6298002;28;20023;-63
2023/09/18 09:49:19;;;;;;;0.88;0.88;;;21.80;67.80;;;;;;6297600;28;20035;-62
2023/09/18 09:52:21;;;;;;;1.13;0.98;;;21.80;67.80;;;;;;6289890;28;20024;-62
2023/09/18 09:55:22;;;;;;;1.10;0.70;;;21.80;67.80;;;;;;6298301;28;20033;-63
2023/09/18 09:58:31;;;;;;;1.30;0.90;;;21.80;67.80;;;;;;6297450;28;20048;-64
2023/09/18 10:01:32;;;;;;;1.25;1.00;;;21.80;67.80;;;;;;6297930;28;20028;-64
2023/09/18 10:04:36;;;;;;;0.75;0.75;;;21.80;67.80;;;;;;6297866;28;20024;-64
2023/09/18 10:07:38;;;;;;;1.00;0.93;;;21.80;67.80;;;;;;6298050;28;20398;-64
2023/09/18 10:10:52;;;;;;;1.00;0.90;;;21.80;67.80;;;;;;6298024;28;20029;-64
2023/09/18 10:14:04;;;;;;;0.95;0.70;;;21.80;67.80;;;;;;6297389;28;20604;-64
2023/09/18 10:17:17;;;;;;;1.30;0.88;;;21.80;67.80;;;;;;6296971;28;20536;-64
2023/09/18 10:20:20;;;;;;;0.80;0.80;;;21.80;67.80;;;;;;6296713;28;20048;-64
2023/09/18 10:23:47;;;;;;;1.10;0.80;;;21.80;67.80;;;;;;6289121;28;20032;-64
2023/09/18 10:26:58;;;;;;;0.80;0.80;;;21.80;67.80;;;;;;6296098;28;20826;-64
2023/09/18 10:30:00;;;;;;;1.00;0.90;;;21.80;67.80;;;;;;6294986;28;20078;-64
2023/09/18 10:33:01;;;;;;;0.82;0.82;;;21.80;67.80;;;;;;6297093;28;20035;-64
2023/09/18 10:36:03;;;;;;;0.95;0.82;;;21.80;67.80;;;;;;6297197;28;20025;-64
2023/09/18 10:39:10;;;;;;;1.10;1.00;;;21.80;67.80;;;;;;6296586;28;20076;-64
2023/09/18 10:42:13;;;;;;;1.27;1.10;;;21.80;67.80;;;;;;6297011;28;20446;-64
2023/09/18 10:45:15;;;;;;;1.10;1.00;;;21.80;67.80;;;;;;6294915;28;20052;-64
2023/09/18 10:48:19;;;;;;;1.20;1.10;;;21.80;67.80;;;;;;6297709;28;20017;-63
2023/09/18 10:51:24;;;;;;;1.48;1.10;;;21.80;67.80;;;;;;6288187;28;20383;-64
2023/09/18 10:54:27;;;;;;;0.98;0.90;;;21.80;68.60;;;;;;6296193;28;20068;-63
2023/09/18 10:57:27;;;;;;;1.00;0.88;;;21.80;67.80;;;;;;6295439;28;20414;-63
2023/09/18 11:00:31;;;;;;;1.08;0.90;;;21.80;67.80;;;;;;6296248;28;20033;-63
2023/09/18 11:03:34;;;;;;;0.93;0.93;;;21.80;67.80;;;;;;6295761;28;20033;-64
2023/09/18 11:06:53;;;;;;;1.20;1.10;;;21.80;67.80;;;;;;6295876;28;20020;-64
2023/09/18 11:09:54;;;;;;;0.82;0.80;;;21.80;67.80;;;;;;6296286;28;20031;-64
2023/09/18 11:13:06;;;;;;;1.00;0.90;;;21.80;67.80;;;;;;6295765;28;20099;-64
2023/09/18 11:16:26;;;;;;;1.08;0.98;;;21.80;67.80;;;;;;6295964;28;20016;-64
2023/09/18 11:19:29;;;;;;;0.95;0.85;;;21.80;67.80;;;;;;6288470;28;20085;-64
2023/09/18 11:22:30;;;;;;;1.52;1.25;;;21.80;67.80;;;;;;6295819;28;20020;-64
2023/09/18 11:25:42;;;;;;;1.02;0.88;;;21.80;67.80;;;;;;6295505;28;20035;-63
2023/09/18 11:28:47;;;;;;;1.15;1.00;;;21.80;67.80;;;;;;6295373;28;20025;-64
2023/09/18 11:31:54;;;;;;;0.95;0.88;;;21.80;67.80;;;;;;6295711;28;20388;-64
2023/09/18 11:35:07;;;;;;;1.00;0.90;;;21.80;67.80;;;;;;6296384;28;20059;-64
2023/09/18 11:38:11;;;;;;;1.00;0.90;;;21.80;67.80;;;;;;6294680;28;20045;-64
2023/09/18 11:41:25;;;;;;;1.30;0.90;;;21.80;67.80;;;;;;6293886;28;20028;-63
2023/09/18 11:44:28;;;;;;;0.90;0.90;;;21.80;67.80;;;;;;6289666;28;20024;-63
2023/09/18 11:47:32;;;;;;;1.13;1.02;;;21.80;67.80;;;;;;6295226;28;20041;-63
2023/09/18 11:50:35;;;;;;;1.13;1.00;;;21.80;67.80;;;;;;6293863;28;20134;-64
2023/09/18 11:53:40;;;;;;;1.10;1.00;;;21.80;67.80;;;;;;6295090;28;20063;-63
2023/09/18 11:56:40;;;;;;;;;;;21.80;67.80;;;;;;6295367;28;20367;-63
2023/09/18 11:59:48;;;;;;;1.20;0.85;;;21.80;67.80;;;;;;6294778;28;19912;-63
2023/09/18 12:02:49;;;;;;;1.05;0.98;;;21.80;67.80;;;;;;6293681;28;20028;-63
2023/09/18 12:05:51;;;;;;;1.30;1.10;;;21.80;67.80;;;;;;6293511;28;20367;-64
2023/09/18 12:08:53;;;;;;;1.40;1.10;;;21.80;67.80;;;;;;6294455;28;20063;-64
2023/09/18 12:11:55;;;;;;;1.20;0.82;;;21.80;67.80;;;;;;6294994;28;20380;-64
2023/09/18 12:14:56;;;;;;;1.05;0.95;;;21.80;67.80;;;;;;6294443;28;20065;-63
2023/09/18 12:18:05;;;;;;;1.50;1.00;;;21.80;67.80;;;;;;6292792;28;20021;-63
2023/09/18 12:21:07;;;;;;;1.20;0.90;;;21.80;68.10;;;;;;6294538;28;20454;-64
2023/09/18 12:24:14;;;;;;;0.98;0.90;;;21.80;67.80;;;;;;6294614;28;20343;-64
2023/09/18 12:27:14;;;;;;;0.70;0.70;;;21.80;67.80;;;;;;6295047;28;20020;-64
2023/09/18 12:30:20;;;;;;;0.85;0.82;;;21.80;67.80;;;;;;6294058;28;20027;-62
2023/09/18 12:33:21;;;;;;;0.95;0.80;;;21.80;67.80;;;;;;6286677;28;20039;-64
2023/09/18 12:36:21;;;;;;;0.85;0.80;;;21.80;67.80;;;;;;6294218;28;20036;-63
2023/09/18 12:39:22;;;;;;;1.23;1.13;;;21.80;67.80;;;;;;6294252;28;20059;-63
2023/09/18 12:42:23;;;;;;;1.15;1.00;;;21.80;67.80;;;;;;6294490;28;20611;-63
2023/09/18 12:45:25;;;;;;;1.10;1.00;;;21.80;68.60;;;;;;6293953;28;20535;-64
2023/09/18 12:48:26;;;;;;;0.70;0.70;;;21.80;67.80;;;;;;6292683;28;20487;-63
2023/09/18 12:51:31;;;;;;;1.00;0.90;;;21.80;67.80;;;;;;6294145;28;20067;-63
2023/09/18 12:54:40;;;;;;;1.55;1.10;;;21.80;67.80;;;;;;6294281;28;20049;-63
2023/09/18 12:57:41;;;;;;;0.90;0.80;;;21.80;67.80;;;;;;6293273;28;20571;-64
2023/09/18 13:00:46;;;;;;;1.23;0.82;;;21.80;67.80;;;;;;6293584;28;20029;-64
2023/09/18 13:03:47;;;;;;;1.08;0.98;;;21.80;67.80;;;;;;6294157;28;20391;-64
2023/09/18 13:07:13;;;;;;;1.33;0.98;;;21.80;67.80;;;;;;6293340;28;20067;-64
2023/09/18 13:10:14;;;;;;;;;;;21.80;67.80;;;;;;6294341;28;20016;-64
2023/09/18 13:13:18;;;;;;;1.10;0.90;;;21.80;67.80;;;;;;6294190;28;19913;-63
2023/09/18 13:16:22;;;;;;;1.20;0.90;;;21.80;67.80;;;;;;6293751;28;20021;-66
2023/09/18 13:19:22;;;;;;;0.90;0.85;;;21.80;67.80;;;;;;6296246;28;20023;-66
2023/09/18 13:22:25;;;;;;;0.82;0.82;;;21.80;67.80;;;;;;6297603;28;20025;-66
2023/09/18 13:25:38;;;;;;;1.42;1.00;;;21.80;67.80;;;;;;6300236;28;20078;-65
2023/09/18 13:28:40;;;;;;;2.13;0.85;;;21.80;67.80;;;;;;6300319;28;20025;-65
2023/09/18 13:31:41;;;;;;;1.15;0.95;;;21.80;67.80;;;;;;6299270;28;20044;-63
2023/09/18 13:34:42;;;;;;;1.20;0.90;;;21.80;67.80;;;;;;6298392;28;20039;-63
2023/09/18 13:37:43;;;;;;;0.93;0.82;;;21.80;67.70;;;;;;6297664;28;20045;-63
2023/09/18 13:40:48;;;;;;;1.95;1.10;;;21.80;67.70;;;;;;6297960;28;20017;-63
2023/09/18 13:43:49;;;;;;;1.45;0.90;;;21.80;67.70;;;;;;6297913;28;20077;-63
2023/09/18 13:46:49;;;;;;;1.33;1.10;;;21.80;67.70;;;;;;6297967;28;20029;-63
2023/09/18 13:49:51;;;;;;;1.10;0.90;;;21.80;67.70;;;;;;6297937;28;20402;-63
2023/09/18 13:52:52;;;;;;;0.98;0.85;;;21.80;67.70;;;;;;6298164;28;20021;-63
2023/09/18 13:55:52;;;;;;;1.20;1.10;;;21.90;67.80;;;;;;6297469;28;20056;-63
2023/09/18 13:58:55;;;;;;;1.20;0.93;;;21.80;67.70;;;;;;6297542;28;20032;-62
2023/09/18 14:01:56;;;;;;;0.90;0.90;;;21.80;67.70;;;;;;6297330;28;20035;-62
2023/09/18 14:04:56;;;;;;;1.42;1.20;;;21.80;67.70;;;;;;6297711;28;20020;-63
2023/09/18 14:07:59;;;;;;;1.23;1.00;;;21.80;67.70;;;;;;6297082;28;20048;-62
2023/09/18 14:11:00;;;;;;;1.20;1.10;;;21.80;67.70;;;;;;6297212;28;20012;-63
2023/09/18 14:14:01;;;;;;;1.30;1.08;;;21.80;67.70;;;;;;6297222;28;20024;-63
2023/09/18 14:17:05;;;;;;;3.22;1.10;;;21.80;67.70;;;;;;6297357;28;20021;-63
2023/09/18 14:20:06;;;;;;;1.17;0.90;;;21.80;67.70;;;;;;6297110;28;20025;-62
2023/09/18 14:23:07;;;;;;;1.27;1.17;;;21.80;67.70;;;;;;6297360;28;20032;-63
2023/09/18 14:26:08;;;;;;;2.08;1.17;;;21.80;67.70;;;;;;6297136;28;20044;-63
2023/09/18 14:29:09;;;;;;;1.13;0.90;;;21.80;67.70;;;;;;6297268;28;20036;-63
2023/09/18 14:32:11;;;;;;;1.20;1.10;;;21.80;67.70;;;;;;6295583;28;20059;-63
2023/09/18 14:35:14;;;;;;;1.65;1.10;;;21.80;67.70;;;;;;6296673;28;20028;-63
2023/09/18 14:38:14;;;;;;;0.80;0.80;;;21.80;67.70;;;;;;6296494;28;20127;-62
2023/09/18 14:41:17;;;;;;;1.20;1.00;;;21.80;67.70;;;;;;6295985;28;20102;-62
2023/09/18 14:44:17;;;;;;;1.10;1.00;;;21.80;67.70;;;;;;6264025;28;20820;-62
2023/09/18 14:47:18;;;;;;;1.20;0.90;;;21.80;67.70;;;;;;6264094;28;20024;-62
2023/09/18 14:50:20;;;;;;;1.13;0.88;;;21.80;67.70;;;;;;6262554;28;20078;-62
2023/09/18 14:53:21;;;;;;;1.05;1.00;;;21.80;67.70;;;;;;6270797;28;20454;-63
2023/09/18 14:56:22;;;;;;;1.10;1.00;;;21.80;67.70;;;;;;6258286;28;20039;-62
2023/09/18 14:59:23;;;;;;;1.17;1.00;;;21.80;67.70;;;;;;6271986;28;20357;-63
2023/09/18 15:02:28;;;;;;;1.10;0.90;;;21.80;67.70;;;;;;6262590;28;20127;-63
2023/09/18 15:05:29;;;;;;;1.13;1.02;;;21.80;67.70;;;;;;6266129;28;20017;-63
2023/09/18 15:08:30;;;;;;;1.55;1.13;;;21.80;67.70;;;;;;6270820;28;20387;-63
2023/09/18 15:11:31;;;;;;;1.25;1.00;;;21.80;67.70;;;;;;6260841;28;20028;-63
2023/09/18 15:14:32;;;;;;;1.17;1.05;;;21.80;67.70;;;;;;6267160;28;20029;-62
2023/09/18 15:17:33;;;;;;;1.58;0.80;;;21.80;67.70;;;;;;6264532;28;20118;-63
2023/09/18 15:20:34;;;;;;;1.40;1.15;;;21.80;67.70;;;;;;6259737;28;20108;-62
2023/09/18 15:23:34;;;;;;;1.35;0.88;;;21.80;67.70;;;;;;6268977;28;20029;-63
2023/09/18 15:26:35;;;;;;;1.00;0.90;;;21.80;67.70;;;;;;6265691;28;20131;-64
2023/09/18 15:29:36;;;;;;;1.10;1.00;;;21.80;67.70;;;;;;6265986;28;20016;-63
2023/09/18 15:32:54;;;;;;;0.95;0.93;;;21.80;67.70;;;;;;6262025;28;20510;-64
2023/09/18 15:35:55;;;;;;;2.63;1.00;;;21.80;67.70;;;;;;6273679;28;20029;-64
2023/09/18 15:38:57;;;;;;;1.02;0.93;;;21.80;67.80;;;;;;6259296;28;20053;-63
2023/09/18 15:41:58;;;;;;;1.35;1.17;;;21.80;67.80;;;;;;6262549;28;20390;-64
2023/09/18 15:44:59;;;;;;;1.13;1.02;;;21.80;67.80;;;;;;6262930;28;20036;-64
2023/09/18 15:48:00;;;;;;;1.33;0.90;;;21.80;67.80;;;;;;6264118;28;20022;-64
2023/09/18 15:51:01;;;;;;;1.17;1.08;;;21.80;67.80;;;;;;6266329;28;20017;-63